createdAt,value
2023-01-19T00:00:10.694Z,52.53
2023-01-19T00:01:11.923Z,55.11
2023-01-19T00:02:10.708Z,55.43
2023-01-19T00:03:10.650Z,54.62
2023-01-19T00:04:10.639Z,59.30
2023-01-19T00:05:10.605Z,59.62
2023-01-19T00:06:10.659Z,58.01
2023-01-19T00:07:10.615Z,53.50
2023-01-19T00:08:10.562Z,59.14
2023-01-19T00:09:10.558Z,56.24
2023-01-19T00:10:10.827Z,58.49
2023-01-19T00:11:10.575Z,60.59
2023-01-19T00:12:10.585Z,56.56
2023-01-19T00:13:10.545Z,59.46
2023-01-19T00:14:10.542Z,53.50
2023-01-19T00:15:10.499Z,57.20
2023-01-19T00:16:10.592Z,58.01
2023-01-19T00:17:11.479Z,58.65
2023-01-19T00:18:11.124Z,60.42
2023-01-19T00:19:11.474Z,60.26
2023-01-19T00:20:10.471Z,59.46
2023-01-19T00:21:10.458Z,55.43
2023-01-19T00:22:10.459Z,57.36
2023-01-19T00:23:10.420Z,62.04
2023-01-19T00:24:10.404Z,55.43
2023-01-19T00:25:10.424Z,58.01
2023-01-19T00:26:10.382Z,60.26
2023-01-19T00:27:10.439Z,60.59
2023-01-19T00:28:10.470Z,58.97
2023-01-19T00:29:11.457Z,57.20
2023-01-19T00:30:10.376Z,58.17
2023-01-19T00:31:10.390Z,60.91
2023-01-19T00:32:10.355Z,61.07
2023-01-19T00:33:10.352Z,63.33
2023-01-19T00:34:10.521Z,60.59
2023-01-19T00:35:10.298Z,61.87
2023-01-19T00:36:10.273Z,59.30
2023-01-19T00:37:10.303Z,57.04
2023-01-19T00:38:10.275Z,60.75
2023-01-19T00:39:10.250Z,61.23
2023-01-19T00:40:10.255Z,59.94
2023-01-19T00:41:10.225Z,56.56
2023-01-19T00:42:10.279Z,63.81
2023-01-19T00:43:10.227Z,55.91
2023-01-19T00:44:10.218Z,57.69
2023-01-19T00:45:10.179Z,57.52
2023-01-19T00:46:10.221Z,60.42
2023-01-19T00:47:10.156Z,59.30
2023-01-19T00:48:10.163Z,57.04
2023-01-19T00:49:10.174Z,57.04
2023-01-19T00:50:10.232Z,55.27
2023-01-19T00:51:10.107Z,57.85
2023-01-19T00:52:10.136Z,56.07
2023-01-19T00:53:10.089Z,57.04
2023-01-19T00:54:10.138Z,58.97
2023-01-19T00:55:10.078Z,58.01
2023-01-19T00:56:10.078Z,57.36
2023-01-19T00:57:10.040Z,58.97
2023-01-19T00:58:10.045Z,58.01
2023-01-19T00:59:10.036Z,61.55
2023-01-19T01:00:10.068Z,60.42
2023-01-19T01:01:10.077Z,58.81
2023-01-19T01:02:10.171Z,52.85
2023-01-19T01:03:10.065Z,60.26
2023-01-19T01:04:10.130Z,55.43
2023-01-19T01:05:09.967Z,60.91
2023-01-19T01:06:10.236Z,61.23
2023-01-19T01:07:10.193Z,60.42
2023-01-19T01:08:09.933Z,59.62
2023-01-19T01:09:09.926Z,61.55
2023-01-19T01:10:09.924Z,61.71
2023-01-19T01:11:10.896Z,58.81
2023-01-19T01:12:09.874Z,54.79
2023-01-19T01:13:21.070Z,62.84
2023-01-19T01:14:09.952Z,63.33
2023-01-19T01:15:09.885Z,58.97
2023-01-19T01:16:09.857Z,57.85
2023-01-19T01:17:09.856Z,54.95
2023-01-19T01:18:09.812Z,57.85
2023-01-19T01:19:09.792Z,59.14
2023-01-19T01:20:10.864Z,55.43
2023-01-19T01:21:09.783Z,58.49
2023-01-19T01:22:09.769Z,60.59
2023-01-19T01:23:09.782Z,58.97
2023-01-19T01:24:09.812Z,58.17
2023-01-19T01:25:09.725Z,62.68
2023-01-19T01:26:09.752Z,56.07
2023-01-19T01:27:09.689Z,57.52
2023-01-19T01:28:10.700Z,59.46
2023-01-19T01:29:09.690Z,58.97
2023-01-19T01:30:09.695Z,60.75
2023-01-19T01:31:09.732Z,58.17
2023-01-19T01:32:09.636Z,61.23
2023-01-19T01:33:09.634Z,60.91
2023-01-19T01:34:09.656Z,60.26
2023-01-19T01:35:09.600Z,58.49
2023-01-19T01:36:09.639Z,60.10
2023-01-19T01:37:09.599Z,58.01
2023-01-19T01:38:09.589Z,58.97
2023-01-19T01:39:09.580Z,61.39
2023-01-19T01:40:09.555Z,62.36
2023-01-19T01:41:09.546Z,59.94
2023-01-19T01:42:09.575Z,60.42
2023-01-19T01:43:09.521Z,59.62
2023-01-19T01:44:09.537Z,58.17
2023-01-19T01:45:09.505Z,61.71
2023-01-19T01:46:09.567Z,59.78
2023-01-19T01:47:09.553Z,63.49
2023-01-19T01:48:09.491Z,58.81
2023-01-19T01:49:09.468Z,55.59
2023-01-19T01:50:09.467Z,62.20
2023-01-19T01:51:09.460Z,59.46
2023-01-19T01:52:09.435Z,59.62
2023-01-19T01:53:09.697Z,58.81
2023-01-19T01:54:09.404Z,56.07
2023-01-19T01:55:09.407Z,59.30
2023-01-19T01:56:09.422Z,61.87
2023-01-19T01:57:09.402Z,59.14
2023-01-19T01:58:09.384Z,60.91
2023-01-19T01:59:09.381Z,59.46
2023-01-19T02:00:09.327Z,55.43
2023-01-19T02:01:09.420Z,58.17
2023-01-19T02:02:09.344Z,59.46
2023-01-19T02:03:09.379Z,60.59
2023-01-19T02:04:09.303Z,60.59
2023-01-19T02:05:09.325Z,58.01
2023-01-19T02:06:09.287Z,58.49
2023-01-19T02:07:09.271Z,61.55
2023-01-19T02:08:09.294Z,54.62
2023-01-19T02:09:09.262Z,56.56
2023-01-19T02:10:09.264Z,60.91
2023-01-19T02:11:09.255Z,59.30
2023-01-19T02:12:09.235Z,58.97
2023-01-19T02:13:09.213Z,59.94
2023-01-19T02:14:09.212Z,59.62
2023-01-19T02:15:09.185Z,58.33
2023-01-19T02:16:09.165Z,57.52
2023-01-19T02:17:09.152Z,60.10
2023-01-19T02:18:09.160Z,63.33
2023-01-19T02:19:09.514Z,61.55
2023-01-19T02:20:09.111Z,62.52
2023-01-19T02:21:09.154Z,59.94
2023-01-19T02:22:09.135Z,59.94
2023-01-19T02:23:09.093Z,61.39
2023-01-19T02:24:09.149Z,62.36
2023-01-19T02:25:09.085Z,61.23
2023-01-19T02:26:09.097Z,61.39
2023-01-19T02:27:09.068Z,63.81
2023-01-19T02:28:09.355Z,58.81
2023-01-19T02:29:09.027Z,59.30
2023-01-19T02:30:09.034Z,59.14
2023-01-19T02:31:09.016Z,60.75
2023-01-19T02:32:09.012Z,60.91
2023-01-19T02:33:08.998Z,62.04
2023-01-19T02:34:09.953Z,57.85
2023-01-19T02:35:08.975Z,60.59
2023-01-19T02:36:08.961Z,57.85
2023-01-19T02:37:08.952Z,60.91
2023-01-19T02:38:08.914Z,57.69
2023-01-19T02:39:08.955Z,61.07
2023-01-19T02:40:08.942Z,59.46
2023-01-19T02:41:08.892Z,59.30
2023-01-19T02:42:08.877Z,58.81
2023-01-19T02:43:08.875Z,58.81
2023-01-19T02:44:09.219Z,56.24
2023-01-19T02:45:08.892Z,58.33
2023-01-19T02:46:08.934Z,57.85
2023-01-19T02:47:08.819Z,59.94
2023-01-19T02:48:08.858Z,56.24
2023-01-19T02:49:08.796Z,55.75
2023-01-19T02:50:08.803Z,58.33
2023-01-19T02:51:08.835Z,56.24
2023-01-19T02:52:09.786Z,58.33
2023-01-19T02:53:09.506Z,60.91
2023-01-19T02:54:09.381Z,60.10
2023-01-19T02:55:08.754Z,61.07
2023-01-19T02:56:10.267Z,58.97
2023-01-19T02:57:08.707Z,52.05
2023-01-19T02:58:08.730Z,61.07
2023-01-19T02:59:10.220Z,59.46
2023-01-19T03:00:08.674Z,58.97
2023-01-19T03:01:08.842Z,62.68
2023-01-19T03:02:08.797Z,63.00
2023-01-19T03:03:08.731Z,58.65
2023-01-19T03:04:08.635Z,57.52
2023-01-19T03:05:08.634Z,58.49
2023-01-19T03:06:08.637Z,62.52
2023-01-19T03:07:08.623Z,60.26
2023-01-19T03:08:08.635Z,61.07
2023-01-19T03:09:08.597Z,62.36
2023-01-19T03:10:08.550Z,62.84
2023-01-19T03:11:08.586Z,63.33
2023-01-19T03:12:08.560Z,61.07
2023-01-19T03:13:08.561Z,60.10
2023-01-19T03:14:09.194Z,63.97
2023-01-19T03:15:08.515Z,61.87
2023-01-19T03:16:08.599Z,63.81
2023-01-19T03:17:08.502Z,62.04
2023-01-19T03:18:08.514Z,62.04
2023-01-19T03:19:08.469Z,61.55
2023-01-19T03:20:08.457Z,61.55
2023-01-19T03:21:08.472Z,62.52
2023-01-19T03:22:08.445Z,61.87
2023-01-19T03:23:09.021Z,61.39
2023-01-19T03:24:08.451Z,59.46
2023-01-19T03:25:08.411Z,57.36
2023-01-19T03:26:08.418Z,61.07
2023-01-19T03:27:08.424Z,61.07
2023-01-19T03:28:08.366Z,62.68
2023-01-19T03:29:08.349Z,64.29
2023-01-19T03:30:08.374Z,59.62
2023-01-19T03:31:08.471Z,55.59
2023-01-19T03:32:08.350Z,53.98
2023-01-19T03:33:08.296Z,60.75
2023-01-19T03:34:08.322Z,62.04
2023-01-19T03:35:08.279Z,60.59
2023-01-19T03:36:08.419Z,62.84
2023-01-19T03:37:08.278Z,63.81
2023-01-19T03:38:08.243Z,56.56
2023-01-19T03:39:08.279Z,60.59
2023-01-19T03:40:08.237Z,58.81
2023-01-19T03:41:08.259Z,60.91
2023-01-19T03:42:09.243Z,59.94
2023-01-19T03:43:08.198Z,55.43
2023-01-19T03:44:08.202Z,59.78
2023-01-19T03:45:08.219Z,61.07
2023-01-19T03:46:08.209Z,61.55
2023-01-19T03:47:09.167Z,62.36
2023-01-19T03:48:08.144Z,61.07
2023-01-19T03:49:08.123Z,65.26
2023-01-19T03:50:08.144Z,60.42
2023-01-19T03:51:08.131Z,60.10
2023-01-19T03:52:08.130Z,60.91
2023-01-19T03:53:08.102Z,58.97
2023-01-19T03:54:08.074Z,61.55
2023-01-19T03:55:08.062Z,63.00
2023-01-19T03:56:08.053Z,62.36
2023-01-19T03:57:08.079Z,61.55
2023-01-19T03:58:08.109Z,62.20
2023-01-19T03:59:08.007Z,60.26
2023-01-19T04:00:08.071Z,61.71
2023-01-19T04:01:08.062Z,59.62
2023-01-19T04:02:08.039Z,61.23
2023-01-19T04:03:08.037Z,61.07
2023-01-19T04:04:07.968Z,62.20
2023-01-19T04:05:07.943Z,58.65
2023-01-19T04:06:08.263Z,60.42
2023-01-19T04:07:07.935Z,64.29
2023-01-19T04:08:08.717Z,61.55
2023-01-19T04:09:07.947Z,62.04
2023-01-19T04:10:07.940Z,58.97
2023-01-19T04:11:07.883Z,61.07
2023-01-19T04:12:07.880Z,64.13
2023-01-19T04:13:07.891Z,64.13
2023-01-19T04:14:07.876Z,64.13
2023-01-19T04:15:07.872Z,63.33
2023-01-19T04:16:07.878Z,63.16
2023-01-19T04:17:07.837Z,62.84
2023-01-19T04:18:07.807Z,63.00
2023-01-19T04:19:07.859Z,61.87
2023-01-19T04:20:07.797Z,63.81
2023-01-19T04:21:07.776Z,66.06
2023-01-19T04:22:07.766Z,62.04
2023-01-19T04:23:07.755Z,63.00
2023-01-19T04:24:07.767Z,61.71
2023-01-19T04:25:07.725Z,61.07
2023-01-19T04:26:07.712Z,62.04
2023-01-19T04:27:07.700Z,60.91
2023-01-19T04:28:07.690Z,63.49
2023-01-19T04:29:07.694Z,63.97
2023-01-19T04:30:07.712Z,63.00
2023-01-19T04:31:07.724Z,65.42
2023-01-19T04:32:07.658Z,63.65
2023-01-19T04:33:07.631Z,61.23
2023-01-19T04:34:07.670Z,60.26
2023-01-19T04:35:07.678Z,60.91
2023-01-19T04:36:07.623Z,61.23
2023-01-19T04:37:07.603Z,63.97
2023-01-19T04:38:07.568Z,62.84
2023-01-19T04:39:07.595Z,61.39
2023-01-19T04:40:07.572Z,62.84
2023-01-19T04:41:07.608Z,63.33
2023-01-19T04:42:07.559Z,63.49
2023-01-19T04:43:07.523Z,64.29
2023-01-19T04:44:07.517Z,62.84
2023-01-19T04:45:07.519Z,60.42
2023-01-19T04:46:07.597Z,61.07
2023-01-19T04:47:07.488Z,62.36
2023-01-19T04:48:07.503Z,64.13
2023-01-19T04:49:07.474Z,62.52
2023-01-19T04:50:07.448Z,61.71
2023-01-19T04:51:07.442Z,63.33
2023-01-19T04:52:07.478Z,63.81
2023-01-19T04:53:07.415Z,62.36
2023-01-19T04:54:07.421Z,63.81
2023-01-19T04:55:07.418Z,60.75
2023-01-19T04:56:07.411Z,62.20
2023-01-19T04:57:07.438Z,63.16
2023-01-19T04:58:07.379Z,63.16
2023-01-19T04:59:07.391Z,62.52
2023-01-19T05:00:07.352Z,63.81
2023-01-19T05:01:07.353Z,64.78
2023-01-19T05:02:07.346Z,63.65
2023-01-19T05:03:07.451Z,63.81
2023-01-19T05:04:07.299Z,65.26
2023-01-19T05:05:07.306Z,65.58
2023-01-19T05:06:07.313Z,65.10
2023-01-19T05:07:07.268Z,64.61
2023-01-19T05:08:07.276Z,64.29
2023-01-19T05:09:07.249Z,64.29
2023-01-19T05:10:07.233Z,62.20
2023-01-19T05:11:07.209Z,62.52
2023-01-19T05:12:08.232Z,62.68
2023-01-19T05:13:07.309Z,62.68
2023-01-19T05:14:07.220Z,64.61
2023-01-19T05:15:07.188Z,66.23
2023-01-19T05:16:07.225Z,65.42
2023-01-19T05:17:07.152Z,63.97
2023-01-19T05:18:07.156Z,64.61
2023-01-19T05:19:07.141Z,65.10
2023-01-19T05:20:08.134Z,65.42
2023-01-19T05:21:07.106Z,65.42
2023-01-19T05:22:07.144Z,64.78
2023-01-19T05:23:07.090Z,64.78
2023-01-19T05:24:07.186Z,64.29
2023-01-19T05:25:07.074Z,64.61
2023-01-19T05:26:08.874Z,63.65
2023-01-19T05:27:07.061Z,63.97
2023-01-19T05:28:07.038Z,65.58
2023-01-19T05:29:07.063Z,64.61
2023-01-19T05:30:07.010Z,64.29
2023-01-19T05:31:07.152Z,63.81
2023-01-19T05:32:07.072Z,63.49
2023-01-19T05:33:06.985Z,65.74
2023-01-19T05:34:07.032Z,65.42
2023-01-19T05:35:06.976Z,64.29
2023-01-19T05:36:06.936Z,64.78
2023-01-19T05:37:06.916Z,63.33
2023-01-19T05:38:06.930Z,64.13
2023-01-19T05:39:06.899Z,65.74
2023-01-19T05:40:06.954Z,65.42
2023-01-19T05:41:06.895Z,66.23
2023-01-19T05:42:06.876Z,66.71
2023-01-19T05:43:06.882Z,65.74
2023-01-19T05:44:06.892Z,65.74
2023-01-19T05:45:06.898Z,66.39
2023-01-19T05:46:06.958Z,67.84
2023-01-19T05:47:06.820Z,67.68
2023-01-19T05:48:08.224Z,67.03
2023-01-19T05:49:06.813Z,65.42
2023-01-19T05:50:06.790Z,66.71
2023-01-19T05:51:06.808Z,62.36
2023-01-19T05:52:06.780Z,65.58
2023-01-19T05:53:06.755Z,64.61
2023-01-19T05:54:06.746Z,63.49
2023-01-19T05:55:06.762Z,64.61
2023-01-19T05:56:06.771Z,66.23
2023-01-19T05:57:06.754Z,66.71
2023-01-19T05:58:06.715Z,64.45
2023-01-19T05:59:06.672Z,65.74
2023-01-19T06:00:06.681Z,65.26
2023-01-19T06:01:06.781Z,64.78
2023-01-19T06:02:06.802Z,63.97
2023-01-19T06:03:06.726Z,64.78
2023-01-19T06:04:06.673Z,64.45
2023-01-19T06:05:06.615Z,66.06
2023-01-19T06:06:06.619Z,65.42
2023-01-19T06:07:06.672Z,65.42
2023-01-19T06:08:06.994Z,66.23
2023-01-19T06:09:06.581Z,67.19
2023-01-19T06:10:06.576Z,66.23
2023-01-19T06:11:06.540Z,65.74
2023-01-19T06:12:06.685Z,63.81
2023-01-19T06:13:06.561Z,63.65
2023-01-19T06:14:06.560Z,63.65
2023-01-19T06:15:06.895Z,66.39
2023-01-19T06:16:06.593Z,64.94
2023-01-19T06:17:07.136Z,65.26
2023-01-19T06:18:06.528Z,65.26
2023-01-19T06:19:06.495Z,64.29
2023-01-19T06:20:06.465Z,64.45
2023-01-19T06:21:06.456Z,64.45
2023-01-19T06:22:06.449Z,65.90
2023-01-19T06:23:06.463Z,63.16
2023-01-19T06:24:06.420Z,64.45
2023-01-19T06:25:06.397Z,65.90
2023-01-19T06:26:06.416Z,66.06
2023-01-19T06:27:06.443Z,67.35
2023-01-19T06:28:06.387Z,66.87
2023-01-19T06:29:06.392Z,65.58
2023-01-19T06:30:06.332Z,66.23
2023-01-19T06:31:06.398Z,66.23
2023-01-19T06:32:06.386Z,65.26
2023-01-19T06:33:06.315Z,64.78
2023-01-19T06:34:06.297Z,65.90
2023-01-19T06:35:06.331Z,67.03
2023-01-19T06:36:06.274Z,65.74
2023-01-19T06:37:06.309Z,67.03
2023-01-19T06:38:06.309Z,68.00
2023-01-19T06:39:06.241Z,66.87
2023-01-19T06:40:06.235Z,64.13
2023-01-19T06:41:06.246Z,66.23
2023-01-19T06:42:06.240Z,63.81
2023-01-19T06:43:06.221Z,65.74
2023-01-19T06:44:06.221Z,67.03
2023-01-19T06:45:06.195Z,65.10
2023-01-19T06:46:06.235Z,66.87
2023-01-19T06:47:15.010Z,64.45
2023-01-19T06:48:07.198Z,65.26
2023-01-19T06:49:06.161Z,63.81
2023-01-19T06:50:06.134Z,65.26
2023-01-19T06:51:06.112Z,66.87
2023-01-19T06:52:06.126Z,66.87
2023-01-19T06:53:06.118Z,66.55
2023-01-19T06:54:06.093Z,66.55
2023-01-19T06:55:06.102Z,63.33
2023-01-19T06:56:06.071Z,65.26
2023-01-19T06:57:06.049Z,66.39
2023-01-19T06:58:06.095Z,65.90
2023-01-19T06:59:06.034Z,68.32
2023-01-19T07:00:06.029Z,64.78
2023-01-19T07:01:06.129Z,64.94
2023-01-19T07:02:06.068Z,65.58
2023-01-19T07:03:06.784Z,66.06
2023-01-19T07:04:06.011Z,66.06
2023-01-19T07:05:05.964Z,66.71
2023-01-19T07:06:05.967Z,67.03
2023-01-19T07:07:05.942Z,63.00
2023-01-19T07:08:05.935Z,63.81
2023-01-19T07:09:05.978Z,64.13
2023-01-19T07:10:05.929Z,65.10
2023-01-19T07:11:24.857Z,64.13
2023-01-19T07:12:07.892Z,65.74
2023-01-19T07:13:05.879Z,64.94
2023-01-19T07:14:05.948Z,65.42
2023-01-19T07:15:05.884Z,64.94
2023-01-19T07:16:07.339Z,65.58
2023-01-19T07:17:05.865Z,64.78
2023-01-19T07:18:05.840Z,64.78
2023-01-19T07:19:05.830Z,64.29
2023-01-19T07:20:05.845Z,67.03
2023-01-19T07:21:05.832Z,66.39
2023-01-19T07:22:06.283Z,66.55
2023-01-19T07:23:05.797Z,65.74
2023-01-19T07:24:05.767Z,64.61
2023-01-19T07:25:05.840Z,64.61
2023-01-19T07:26:05.763Z,65.26
2023-01-19T07:27:05.734Z,63.16
2023-01-19T07:28:05.744Z,67.35
2023-01-19T07:29:05.719Z,64.94
2023-01-19T07:30:05.791Z,64.78
2023-01-19T07:31:05.779Z,63.97
2023-01-19T07:32:05.689Z,65.58
2023-01-19T07:33:05.666Z,64.13
2023-01-19T07:34:05.702Z,64.78
2023-01-19T07:35:05.637Z,64.61
2023-01-19T07:36:05.703Z,66.23
2023-01-19T07:37:05.627Z,64.45
2023-01-19T07:38:05.709Z,65.10
2023-01-19T07:39:05.671Z,64.78
2023-01-19T07:40:05.585Z,64.45
2023-01-19T07:41:05.668Z,65.90
2023-01-19T07:42:05.568Z,65.58
2023-01-19T07:43:05.555Z,64.29
2023-01-19T07:44:05.608Z,64.78
2023-01-19T07:45:05.547Z,64.29
2023-01-19T07:46:05.584Z,63.00
2023-01-19T07:47:05.539Z,64.61
2023-01-19T07:48:05.499Z,66.87
2023-01-19T07:49:05.484Z,65.74
2023-01-19T07:50:05.530Z,63.33
2023-01-19T07:51:05.573Z,64.45
2023-01-19T07:52:05.535Z,65.58
2023-01-19T07:53:05.470Z,64.29
2023-01-19T07:54:05.475Z,61.87
2023-01-19T07:55:05.447Z,66.06
2023-01-19T07:56:05.406Z,66.23
2023-01-19T07:57:05.459Z,66.39
2023-01-19T07:58:05.401Z,65.10
2023-01-19T07:59:05.425Z,66.55
2023-01-19T08:00:05.370Z,64.45
2023-01-19T08:01:05.424Z,64.61
2023-01-19T08:02:05.519Z,65.26
2023-01-19T08:03:05.543Z,65.10
2023-01-19T08:04:05.360Z,64.61
2023-01-19T08:05:05.308Z,67.35
2023-01-19T08:06:05.339Z,66.55
2023-01-19T08:07:05.332Z,66.23
2023-01-19T08:08:05.299Z,64.61
2023-01-19T08:09:05.270Z,63.65
2023-01-19T08:10:05.242Z,66.23
2023-01-19T08:11:05.245Z,64.94
2023-01-19T08:12:05.353Z,66.39
2023-01-19T08:13:05.225Z,66.87
2023-01-19T08:14:07.776Z,66.06
2023-01-19T08:15:06.410Z,64.29
2023-01-19T08:16:05.257Z,64.45
2023-01-19T08:17:05.187Z,67.19
2023-01-19T08:18:05.185Z,66.71
2023-01-19T08:19:05.185Z,65.26
2023-01-19T08:20:05.151Z,67.03
2023-01-19T08:21:05.124Z,64.78
2023-01-19T08:22:05.121Z,66.71
2023-01-19T08:23:05.231Z,65.26
2023-01-19T08:24:05.280Z,65.90
2023-01-19T08:25:05.098Z,67.84
2023-01-19T08:26:05.081Z,65.10
2023-01-19T08:27:05.114Z,66.87
2023-01-19T08:28:05.034Z,66.23
2023-01-19T08:29:05.060Z,64.45
2023-01-19T08:30:05.102Z,67.84
2023-01-19T08:31:18.492Z,67.51
2023-01-19T08:32:06.137Z,66.55
2023-01-19T08:33:05.056Z,66.87
2023-01-19T08:34:04.979Z,64.78
2023-01-19T08:35:05.013Z,63.00
2023-01-19T08:36:04.983Z,67.51
2023-01-19T08:37:04.933Z,65.42
2023-01-19T08:38:04.938Z,67.35
2023-01-19T08:39:04.919Z,67.19
2023-01-19T08:40:04.928Z,66.55
2023-01-19T08:41:04.922Z,66.55
2023-01-19T08:42:04.912Z,67.68
2023-01-19T08:43:04.876Z,67.35
2023-01-19T08:44:04.864Z,66.06
2023-01-19T08:45:04.876Z,65.26
2023-01-19T08:46:04.896Z,65.42
2023-01-19T08:47:04.864Z,66.87
2023-01-19T08:48:04.877Z,65.26
2023-01-19T08:49:04.829Z,64.29
2023-01-19T08:50:04.805Z,65.58
2023-01-19T08:51:04.841Z,67.03
2023-01-19T08:52:04.771Z,64.13
2023-01-19T08:53:04.796Z,65.26
2023-01-19T08:54:04.763Z,66.55
2023-01-19T08:55:04.730Z,65.26
2023-01-19T08:56:04.767Z,64.78
2023-01-19T08:57:04.787Z,67.19
2023-01-19T08:58:04.764Z,65.42
2023-01-19T08:59:09.843Z,65.26
2023-01-19T09:00:05.679Z,66.71
2023-01-19T09:01:04.696Z,65.42
2023-01-19T09:02:04.869Z,67.51
2023-01-19T09:03:05.226Z,67.19
2023-01-19T09:04:04.646Z,65.74
2023-01-19T09:05:04.675Z,66.87
2023-01-19T09:06:04.630Z,66.23
2023-01-19T09:08:04.631Z,64.78
2023-01-19T09:09:04.590Z,64.61
2023-01-19T09:10:04.625Z,66.87
2023-01-19T09:11:04.637Z,64.13
2023-01-19T09:12:04.559Z,66.87
2023-01-19T09:13:04.580Z,66.23
2023-01-19T09:14:04.571Z,66.87
2023-01-19T09:15:04.538Z,65.58
2023-01-19T09:16:05.637Z,64.13
2023-01-19T09:17:04.509Z,65.58
2023-01-19T09:18:04.531Z,61.71
2023-01-19T09:19:04.520Z,61.39
2023-01-19T09:20:04.513Z,65.42
2023-01-19T09:21:04.469Z,64.13
2023-01-19T09:22:04.447Z,65.26
2023-01-19T09:23:04.460Z,65.26
2023-01-19T09:24:04.493Z,65.26
2023-01-19T09:25:04.423Z,64.78
2023-01-19T09:26:04.421Z,64.45
2023-01-19T09:27:04.440Z,65.10
2023-01-19T09:28:04.387Z,64.29
2023-01-19T09:29:04.432Z,64.94
2023-01-19T09:30:04.378Z,64.45
2023-01-19T09:31:04.480Z,64.13
2023-01-19T09:32:04.336Z,65.26
2023-01-19T09:33:04.508Z,64.45
2023-01-19T09:34:04.329Z,63.00
2023-01-19T09:35:04.320Z,64.61
2023-01-19T09:36:04.312Z,62.84
2023-01-19T09:37:04.282Z,66.06
2023-01-19T09:38:04.351Z,62.36
2023-01-19T09:39:04.264Z,63.00
2023-01-19T09:40:04.327Z,64.29
2023-01-19T09:41:04.268Z,65.74
2023-01-19T09:42:04.233Z,62.20
2023-01-19T09:43:04.239Z,63.65
2023-01-19T09:44:04.207Z,62.84
2023-01-19T09:45:05.270Z,63.81
2023-01-19T09:46:04.273Z,63.97
2023-01-19T09:47:04.199Z,62.04
2023-01-19T09:48:04.170Z,59.46
2023-01-19T09:49:04.179Z,66.71
2023-01-19T09:50:04.166Z,63.97
2023-01-19T09:51:04.141Z,65.74
2023-01-19T09:52:04.134Z,64.13
2023-01-19T09:53:04.111Z,65.10
2023-01-19T09:54:04.130Z,64.45
2023-01-19T09:55:04.099Z,64.61
2023-01-19T09:56:04.104Z,64.13
2023-01-19T09:57:04.482Z,65.74
2023-01-19T09:58:04.294Z,65.26
2023-01-19T09:59:04.045Z,64.29
2023-01-19T10:00:04.041Z,65.74
2023-01-19T10:01:04.210Z,65.42
2023-01-19T10:02:03.994Z,62.20
2023-01-19T10:03:04.304Z,63.65
2023-01-19T10:04:03.983Z,64.61
2023-01-19T10:05:03.952Z,64.94
2023-01-19T10:06:04.357Z,66.06
2023-01-19T10:07:03.941Z,65.74
2023-01-19T10:08:03.989Z,67.19
2023-01-19T10:09:03.933Z,63.00
2023-01-19T10:10:03.927Z,64.45
2023-01-19T10:11:03.918Z,64.78
2023-01-19T10:12:03.953Z,66.87
2023-01-19T10:13:04.038Z,64.94
2023-01-19T10:14:03.877Z,63.33
2023-01-19T10:15:03.870Z,65.26
2023-01-19T10:16:03.889Z,64.29
2023-01-19T10:17:03.887Z,62.52
2023-01-19T10:18:03.981Z,64.78
2023-01-19T10:19:03.811Z,63.16
2023-01-19T10:20:03.793Z,61.55
2023-01-19T10:21:05.501Z,64.29
2023-01-19T10:22:04.824Z,61.23
2023-01-19T10:23:04.261Z,59.78
2023-01-19T10:24:05.772Z,64.13
2023-01-19T10:25:04.775Z,63.49
2023-01-19T10:26:03.771Z,63.33
2023-01-19T10:27:03.727Z,64.61
2023-01-19T10:28:03.793Z,66.87
2023-01-19T10:29:03.713Z,63.65
2023-01-19T10:30:03.682Z,64.29
2023-01-19T10:31:03.850Z,65.10
2023-01-19T10:32:03.886Z,66.06
2023-01-19T10:33:03.969Z,63.81
2023-01-19T10:34:03.648Z,62.20
2023-01-19T10:35:04.641Z,63.81
2023-01-19T10:36:03.610Z,65.10
2023-01-19T10:37:03.612Z,64.61
2023-01-19T10:38:03.637Z,63.33
2023-01-19T10:39:03.622Z,64.29
2023-01-19T10:40:03.615Z,62.36
2023-01-19T10:41:03.587Z,63.97
2023-01-19T10:42:03.655Z,63.49
2023-01-19T10:43:04.113Z,62.84
2023-01-19T10:44:03.599Z,64.13
2023-01-19T10:45:03.555Z,65.10
2023-01-19T10:46:03.653Z,65.42
2023-01-19T10:47:03.489Z,63.16
2023-01-19T10:48:03.534Z,63.33
2023-01-19T10:49:03.528Z,64.45
2023-01-19T10:50:04.522Z,63.49
2023-01-19T10:51:03.512Z,63.16
2023-01-19T10:52:04.175Z,62.52
2023-01-19T10:53:04.024Z,63.65
2023-01-19T10:54:03.536Z,64.13
2023-01-19T10:55:03.457Z,62.20
2023-01-19T10:56:03.420Z,61.39
2023-01-19T10:57:03.545Z,64.45
2023-01-19T10:58:03.449Z,64.45
2023-01-19T10:59:03.479Z,61.39
2023-01-19T11:00:03.386Z,58.49
2023-01-19T11:01:04.060Z,63.33
2023-01-19T11:02:03.541Z,60.59
2023-01-19T11:03:03.946Z,62.68
2023-01-19T11:04:03.356Z,63.16
2023-01-19T11:05:03.373Z,62.20
2023-01-19T11:06:03.311Z,63.33
2023-01-19T11:07:03.342Z,60.59
2023-01-19T11:08:03.298Z,62.52
2023-01-19T11:09:03.266Z,62.52
2023-01-19T11:10:03.298Z,63.65
2023-01-19T11:11:03.260Z,63.65
2023-01-19T11:12:03.231Z,64.78
2023-01-19T11:13:03.824Z,64.29
2023-01-19T11:14:03.251Z,63.00
2023-01-19T11:15:03.249Z,64.13
2023-01-19T11:16:04.239Z,64.94
2023-01-19T11:17:03.285Z,64.61
2023-01-19T11:18:03.333Z,66.71
2023-01-19T11:19:03.186Z,64.45
2023-01-19T11:20:03.147Z,65.10
2023-01-19T11:21:03.200Z,64.78
2023-01-19T11:22:03.125Z,63.16
2023-01-19T11:23:03.405Z,63.33
2023-01-19T11:24:03.138Z,64.78
2023-01-19T11:25:03.099Z,62.36
2023-01-19T11:26:03.118Z,64.94
2023-01-19T11:27:03.114Z,63.81
2023-01-19T11:28:03.076Z,63.65
2023-01-19T11:29:03.075Z,62.36
2023-01-19T11:30:03.040Z,64.13
2023-01-19T11:31:03.099Z,64.78
2023-01-19T11:32:03.146Z,63.81
2023-01-19T11:33:03.282Z,63.33
2023-01-19T11:34:02.998Z,64.78
2023-01-19T11:35:03.014Z,62.52
2023-01-19T11:36:02.977Z,61.71
2023-01-19T11:37:03.016Z,65.26
2023-01-19T11:38:02.951Z,63.00
2023-01-19T11:39:02.956Z,65.42
2023-01-19T11:40:02.952Z,63.81
2023-01-19T11:41:02.935Z,63.33
2023-01-19T11:42:02.929Z,63.97
2023-01-19T11:43:03.310Z,66.06
2023-01-19T11:44:02.920Z,65.10
2023-01-19T11:45:02.907Z,58.97
2023-01-19T11:46:02.943Z,60.42
2023-01-19T11:47:02.881Z,62.84
2023-01-19T11:48:03.360Z,63.33
2023-01-19T11:49:03.005Z,62.84
2023-01-19T11:50:02.829Z,64.45
2023-01-19T11:51:02.824Z,62.04
2023-01-19T11:52:02.817Z,61.71
2023-01-19T11:53:02.792Z,64.94
2023-01-19T11:54:02.812Z,62.04
2023-01-19T11:55:02.776Z,63.16
2023-01-19T11:56:02.791Z,63.65
2023-01-19T11:57:02.753Z,63.49
2023-01-19T11:58:03.192Z,63.33
2023-01-19T11:59:02.873Z,63.81
2023-01-19T12:00:02.730Z,62.84
2023-01-19T12:01:02.755Z,63.00
2023-01-19T12:02:02.772Z,62.52
2023-01-19T12:03:02.722Z,61.07
2023-01-19T12:04:02.681Z,63.33
2023-01-19T12:05:02.664Z,63.16
2023-01-19T12:06:02.683Z,62.04
2023-01-19T12:07:02.686Z,63.33
2023-01-19T12:08:05.447Z,60.75
2023-01-19T12:09:03.655Z,61.07
2023-01-19T12:10:02.620Z,60.59
2023-01-19T12:11:02.609Z,62.04
2023-01-19T12:12:02.601Z,63.16
2023-01-19T12:13:02.628Z,60.42
2023-01-19T12:14:02.588Z,60.42
2023-01-19T12:15:02.555Z,61.39
2023-01-19T12:16:02.534Z,62.20
2023-01-19T12:17:02.537Z,58.17
2023-01-19T12:18:02.905Z,60.75
2023-01-19T12:19:02.518Z,57.36
2023-01-19T12:20:02.492Z,59.62
2023-01-19T12:21:04.185Z,60.42
2023-01-19T12:22:03.466Z,62.52
2023-01-19T12:23:02.444Z,58.97
2023-01-19T12:24:02.540Z,53.66
2023-01-19T12:25:02.449Z,58.81
2023-01-19T12:26:02.450Z,63.49
2023-01-19T12:27:02.419Z,61.55
2023-01-19T12:28:02.410Z,60.59
2023-01-19T12:29:02.440Z,59.78
2023-01-19T12:30:02.423Z,59.14
2023-01-19T12:31:02.521Z,61.55
2023-01-19T12:32:02.374Z,60.91
2023-01-19T12:33:02.366Z,55.43
2023-01-19T12:34:02.398Z,58.65
2023-01-19T12:35:02.338Z,56.88
2023-01-19T12:36:02.308Z,57.04
2023-01-19T12:37:02.307Z,57.20
2023-01-19T12:38:02.288Z,56.56
2023-01-19T12:39:02.286Z,56.40
2023-01-19T12:40:02.322Z,57.04
2023-01-19T12:41:02.267Z,56.88
2023-01-19T12:42:02.274Z,57.04
2023-01-19T12:43:02.230Z,58.97
2023-01-19T12:44:02.372Z,57.20
2023-01-19T12:45:02.251Z,56.56
2023-01-19T12:46:02.202Z,53.82
2023-01-19T12:47:02.199Z,53.82
2023-01-19T12:48:02.207Z,56.56
2023-01-19T12:49:02.187Z,56.24
2023-01-19T12:50:02.145Z,55.75
2023-01-19T12:51:02.305Z,55.27
2023-01-19T12:52:02.139Z,56.40
2023-01-19T12:53:02.134Z,54.95